sensor_id;sensor_type;location;lat;lon;timestamp;pressure;altitude;pressure_sealevel;temperature;humidity
50093;BME280;35974;47.752;10.290;2023-05-19T00:00:18;94153.09;;;9.13;100.00
50093;BME280;35974;47.752;10.290;2023-05-19T00:02:45;94143.63;;;9.12;100.00
50093;BME280;35974;47.752;10.290;2023-05-19T00:05:12;94152.22;;;9.06;100.00
50093;BME280;35974;47.752;10.290;2023-05-19T00:07:41;94146.25;;;9.12;100.00
50093;BME280;35974;47.752;10.290;2023-05-19T00:10:09;94141.91;;;9.20;100.00
50093;BME280;35974;47.752;10.290;2023-05-19T00:15:06;94139.28;;;8.98;100.00
50093;BME280;35974;47.752;10.290;2023-05-19T00:20:03;94131.59;;;8.90;100.00
50093;BME280;35974;47.752;10.290;2023-05-19T00:22:32;94133.09;;;8.77;100.00
50093;BME280;35974;47.752;10.290;2023-05-19T00:24:59;94134.69;;;8.78;100.00
50093;BME280;35974;47.752;10.290;2023-05-19T00:27:25;94140.28;;;8.75;100.00
50093;BME280;35974;47.752;10.290;2023-05-19T00:29:52;94135.44;;;8.72;100.00
50093;BME280;35974;47.752;10.290;2023-05-19T00:32:18;94125.75;;;8.66;100.00
50093;BME280;35974;47.752;10.290;2023-05-19T00:34:44;94131.72;;;8.60;100.00
50093;BME280;35974;47.752;10.290;2023-05-19T00:37:13;94128.50;;;8.58;100.00
50093;BME280;35974;47.752;10.290;2023-05-19T00:39:39;94133.69;;;8.58;100.00
50093;BME280;35974;47.752;10.290;2023-05-19T00:42:07;94123.63;;;8.55;100.00
50093;BME280;35974;47.752;10.290;2023-05-19T00:44:36;94120.00;;;8.56;100.00
50093;BME280;35974;47.752;10.290;2023-05-19T00:47:09;94127.84;;;8.56;100.00
50093;BME280;35974;47.752;10.290;2023-05-19T00:49:35;94120.78;;;8.50;100.00
50093;BME280;35974;47.752;10.290;2023-05-19T00:52:03;94121.41;;;8.52;100.00
50093;BME280;35974;47.752;10.290;2023-05-19T00:54:31;94122.81;;;8.54;100.00
50093;BME280;35974;47.752;10.290;2023-05-19T00:56:58;94119.94;;;8.49;100.00
50093;BME280;35974;47.752;10.290;2023-05-19T00:59:25;94118.22;;;8.41;100.00
50093;BME280;35974;47.752;10.290;2023-05-19T01:01:52;94114.97;;;8.54;100.00
50093;BME280;35974;47.752;10.290;2023-05-19T01:04:18;94113.94;;;8.49;100.00
50093;BME280;35974;47.752;10.290;2023-05-19T01:07:00;94112.31;;;8.48;100.00
50093;BME280;35974;47.752;10.290;2023-05-19T01:09:26;94104.38;;;8.56;100.00
50093;BME280;35974;47.752;10.290;2023-05-19T01:11:52;94109.78;;;8.39;100.00
50093;BME280;35974;47.752;10.290;2023-05-19T01:14:19;94106.81;;;8.42;100.00
50093;BME280;35974;47.752;10.290;2023-05-19T01:16:46;94105.13;;;8.35;100.00
50093;BME280;35974;47.752;10.290;2023-05-19T01:24:22;94097.84;;;8.45;100.00
50093;BME280;35974;47.752;10.290;2023-05-19T01:32:06;94104.94;;;8.36;100.00
50093;BME280;35974;47.752;10.290;2023-05-19T01:34:37;94104.22;;;8.42;100.00
50093;BME280;35974;47.752;10.290;2023-05-19T01:37:04;94114.13;;;8.32;100.00
50093;BME280;35974;47.752;10.290;2023-05-19T01:39:30;94107.09;;;8.33;100.00
50093;BME280;35974;47.752;10.290;2023-05-19T01:41:58;94101.97;;;8.39;100.00
50093;BME280;35974;47.752;10.290;2023-05-19T01:44:26;94109.78;;;8.39;100.00
50093;BME280;35974;47.752;10.290;2023-05-19T01:46:52;94108.09;;;8.32;100.00
50093;BME280;35974;47.752;10.290;2023-05-19T01:49:19;94116.09;;;8.30;100.00
50093;BME280;35974;47.752;10.290;2023-05-19T01:51:48;94104.44;;;8.26;100.00
50093;BME280;35974;47.752;10.290;2023-05-19T01:54:14;94109.66;;;8.26;100.00
50093;BME280;35974;47.752;10.290;2023-05-19T01:56:45;94108.91;;;8.32;100.00
50093;BME280;35974;47.752;10.290;2023-05-19T02:01:52;94112.22;;;8.41;100.00
50093;BME280;35974;47.752;10.290;2023-05-19T02:04:31;94106.56;;;8.37;100.00
50093;BME280;35974;47.752;10.290;2023-05-19T02:12:10;94105.88;;;8.43;100.00
50093;BME280;35974;47.752;10.290;2023-05-19T02:14:52;94101.34;;;8.37;100.00
50093;BME280;35974;47.752;10.290;2023-05-19T02:17:27;94104.47;;;8.48;100.00
50093;BME280;35974;47.752;10.290;2023-05-19T02:19:58;94096.66;;;8.48;100.00
50093;BME280;35974;47.752;10.290;2023-05-19T02:22:24;94098.53;;;8.54;100.00
50093;BME280;35974;47.752;10.290;2023-05-19T02:24:56;94089.97;;;8.60;100.00
50093;BME280;35974;47.752;10.290;2023-05-19T02:27:22;94102.91;;;8.68;100.00
50093;BME280;35974;47.752;10.290;2023-05-19T02:29:49;94097.56;;;8.55;100.00
50093;BME280;35974;47.752;10.290;2023-05-19T02:32:16;94093.31;;;8.54;100.00
50093;BME280;35974;47.752;10.290;2023-05-19T02:34:45;94093.19;;;8.62;100.00
50093;BME280;35974;47.752;10.290;2023-05-19T02:37:15;94090.34;;;8.57;100.00
50093;BME280;35974;47.752;10.290;2023-05-19T02:39:42;94100.53;;;8.73;100.00
50093;BME280;35974;47.752;10.290;2023-05-19T02:42:10;94097.06;;;8.66;100.00
50093;BME280;35974;47.752;10.290;2023-05-19T02:44:37;94092.09;;;8.71;100.00
50093;BME280;35974;47.752;10.290;2023-05-19T02:47:04;94097.69;;;8.68;100.00
50093;BME280;35974;47.752;10.290;2023-05-19T02:49:30;94087.75;;;8.57;100.00
50093;BME280;35974;47.752;10.290;2023-05-19T02:52:04;94092.34;;;8.55;100.00
50093;BME280;35974;47.752;10.290;2023-05-19T02:54:31;94096.56;;;8.77;100.00
50093;BME280;35974;47.752;10.290;2023-05-19T02:56:58;94082.19;;;8.88;100.00
50093;BME280;35974;47.752;10.290;2023-05-19T02:59:25;94091.47;;;8.69;100.00
50093;BME280;35974;47.752;10.290;2023-05-19T03:01:53;94084.75;;;8.60;100.00
50093;BME280;35974;47.752;10.290;2023-05-19T03:04:20;94084.38;;;8.63;100.00
50093;BME280;35974;47.752;10.290;2023-05-19T03:06:47;94084.38;;;8.63;100.00
50093;BME280;35974;47.752;10.290;2023-05-19T03:09:13;94081.66;;;8.71;100.00
50093;BME280;35974;47.752;10.290;2023-05-19T03:11:40;94076.44;;;8.71;100.00
50093;BME280;35974;47.752;10.290;2023-05-19T03:14:06;94080.53;;;8.81;100.00
50093;BME280;35974;47.752;10.290;2023-05-19T03:16:37;94075.19;;;8.67;100.00
50093;BME280;35974;47.752;10.290;2023-05-19T03:19:06;94070.34;;;8.64;100.00
50093;BME280;35974;47.752;10.290;2023-05-19T03:21:36;94065.50;;;8.61;100.00
50093;BME280;35974;47.752;10.290;2023-05-19T03:24:03;94077.91;;;8.59;100.00
50093;BME280;35974;47.752;10.290;2023-05-19T03:26:29;94072.81;;;8.72;100.00
50093;BME280;35974;47.752;10.290;2023-05-19T03:28:55;94068.91;;;8.83;100.00
50093;BME280;35974;47.752;10.290;2023-05-19T03:31:23;94075.25;;;8.74;100.00
50093;BME280;35974;47.752;10.290;2023-05-19T03:33:49;94065.13;;;8.64;100.00
50093;BME280;35974;47.752;10.290;2023-05-19T03:36:15;94075.19;;;8.67;100.00
50093;BME280;35974;47.752;10.290;2023-05-19T03:38:42;94070.94;;;8.88;100.00
50093;BME280;35974;47.752;10.290;2023-05-19T03:41:09;94067.28;;;8.82;100.00
50093;BME280;35974;47.752;10.290;2023-05-19T03:43:35;94073.22;;;8.69;100.00
50093;BME280;35974;47.752;10.290;2023-05-19T03:46:01;94073.59;;;8.66;100.00
50093;BME280;35974;47.752;10.290;2023-05-19T03:48:28;94078.69;;;8.74;100.00
50093;BME280;35974;47.752;10.290;2023-05-19T03:50:55;94085.97;;;8.64;100.00
50093;BME280;35974;47.752;10.290;2023-05-19T03:53:21;94076.13;;;8.81;100.00
50093;BME280;35974;47.752;10.290;2023-05-19T03:55:47;94081.84;;;8.70;100.00
50093;BME280;35974;47.752;10.290;2023-05-19T03:58:14;94079.19;;;8.63;100.00
50093;BME280;35974;47.752;10.290;2023-05-19T04:00:42;94079.66;;;8.73;100.00
50093;BME280;35974;47.752;10.290;2023-05-19T04:03:08;94085.19;;;8.64;100.00
50093;BME280;35974;47.752;10.290;2023-05-19T04:05:35;94082.75;;;8.62;100.00
50093;BME280;35974;47.752;10.290;2023-05-19T04:08:01;94078.84;;;8.73;100.00
50093;BME280;35974;47.752;10.290;2023-05-19T04:10:28;94072.94;;;8.86;100.00
50093;BME280;35974;47.752;10.290;2023-05-19T04:12:54;94073.31;;;8.83;100.00
50093;BME280;35974;47.752;10.290;2023-05-19T04:15:21;94070.84;;;8.74;100.00
50093;BME280;35974;47.752;10.290;2023-05-19T04:17:50;94079.78;;;8.65;100.00
50093;BME280;35974;47.752;10.290;2023-05-19T04:22:46;94075.56;;;8.64;100.00
50093;BME280;35974;47.752;10.290;2023-05-19T04:25:13;94080.78;;;8.64;100.00
50093;BME280;35974;47.752;10.290;2023-05-19T04:27:46;94078.75;;;8.59;100.00
50093;BME280;35974;47.752;10.290;2023-05-19T04:30:13;94097.31;;;8.71;100.00
50093;BME280;35974;47.752;10.290;2023-05-19T04:32:47;94089.72;;;8.76;100.00
50093;BME280;35974;47.752;10.290;2023-05-19T04:35:16;94081.47;;;8.73;100.00
50093;BME280;35974;47.752;10.290;2023-05-19T04:40:20;94081.59;;;8.65;100.00
50093;BME280;35974;47.752;10.290;2023-05-19T04:42:49;94088.47;;;8.72;100.00
50093;BME280;35974;47.752;10.290;2023-05-19T04:45:17;94089.59;;;8.63;100.00
50093;BME280;35974;47.752;10.290;2023-05-19T04:47:43;94088.47;;;8.72;100.00
50093;BME280;35974;47.752;10.290;2023-05-19T04:50:12;94077.59;;;8.69;100.00
50093;BME280;35974;47.752;10.290;2023-05-19T04:52:39;94084.06;;;8.73;100.00
50093;BME280;35974;47.752;10.290;2023-05-19T04:55:18;94074.44;;;8.73;100.00
50093;BME280;35974;47.752;10.290;2023-05-19T05:00:20;94075.69;;;8.77;100.00
50093;BME280;35974;47.752;10.290;2023-05-19T05:02:47;94078.31;;;8.77;100.00
50093;BME280;35974;47.752;10.290;2023-05-19T05:05:26;94082.88;;;8.75;100.00
50093;BME280;35974;47.752;10.290;2023-05-19T05:07:52;94083.03;;;8.89;100.00
50093;BME280;35974;47.752;10.290;2023-05-19T05:10:19;94080.13;;;8.84;100.00
50093;BME280;35974;47.752;10.290;2023-05-19T05:12:45;94083.16;;;8.81;100.00
50093;BME280;35974;47.752;10.290;2023-05-19T05:15:12;94086.63;;;8.88;100.00
50093;BME280;35974;47.752;10.290;2023-05-19T05:17:38;94087.84;;;8.92;100.00
50093;BME280;35974;47.752;10.290;2023-05-19T05:20:05;94087.66;;;8.93;100.00
50093;BME280;35974;47.752;10.290;2023-05-19T05:22:32;94091.34;;;8.77;100.00
50093;BME280;35974;47.752;10.290;2023-05-19T05:24:59;94106.19;;;8.77;100.00
50093;BME280;35974;47.752;10.290;2023-05-19T05:27:26;94100.66;;;8.87;100.00
50093;BME280;35974;47.752;10.290;2023-05-19T05:29:52;94090.34;;;8.78;100.00
50093;BME280;35974;47.752;10.290;2023-05-19T05:32:19;94091.72;;;8.74;100.00
50093;BME280;35974;47.752;10.290;2023-05-19T05:34:45;94095.31;;;8.73;100.00
50093;BME280;35974;47.752;10.290;2023-05-19T05:37:12;94094.19;;;8.83;100.00
50093;BME280;35974;47.752;10.290;2023-05-19T05:39:40;94097.06;;;8.88;100.00
50093;BME280;35974;47.752;10.290;2023-05-19T05:42:06;94093.47;;;8.89;100.00
50093;BME280;35974;47.752;10.290;2023-05-19T05:44:40;94095.47;;;8.93;100.00
50093;BME280;35974;47.752;10.290;2023-05-19T05:47:07;94099.16;;;8.99;100.00
50093;BME280;35974;47.752;10.290;2023-05-19T05:49:33;94108.66;;;8.85;100.00
50093;BME280;35974;47.752;10.290;2023-05-19T05:52:03;94090.97;;;8.81;100.00
50093;BME280;35974;47.752;10.290;2023-05-19T05:54:41;94097.41;;;8.85;100.00
50093;BME280;35974;47.752;10.290;2023-05-19T05:57:07;94097.06;;;8.88;100.00
50093;BME280;35974;47.752;10.290;2023-05-19T05:59:34;94101.25;;;9.10;100.00
50093;BME280;35974;47.752;10.290;2023-05-19T06:02:01;94099.63;;;9.09;100.00
50093;BME280;35974;47.752;10.290;2023-05-19T06:04:27;94103.63;;;9.05;100.00
50093;BME280;35974;47.752;10.290;2023-05-19T06:06:54;94102.00;;;9.04;100.00
50093;BME280;35974;47.752;10.290;2023-05-19T06:09:26;94098.41;;;9.05;100.00
50093;BME280;35974;47.752;10.290;2023-05-19T06:11:53;94100.00;;;9.06;100.00
50093;BME280;35974;47.752;10.290;2023-05-19T06:14:19;94100.47;;;9.10;100.00
50093;BME280;35974;47.752;10.290;2023-05-19T06:16:46;94097.03;;;9.09;100.00
50093;BME280;35974;47.752;10.290;2023-05-19T06:19:13;94093.56;;;9.02;100.00
50093;BME280;35974;47.752;10.290;2023-05-19T06:21:43;94105.22;;;9.06;100.00
50093;BME280;35974;47.752;10.290;2023-05-19T06:24:10;94103.25;;;9.08;100.00
50093;BME280;35974;47.752;10.290;2023-05-19T06:26:37;94103.63;;;9.05;100.00
50093;BME280;35974;47.752;10.290;2023-05-19T06:29:03;94096.03;;;9.10;100.00
50093;BME280;35974;47.752;10.290;2023-05-19T06:31:29;94100.00;;;9.28;100.00
50093;BME280;35974;47.752;10.290;2023-05-19T06:34:00;94103.22;;;9.30;100.00
50093;BME280;35974;47.752;10.290;2023-05-19T06:36:27;94096.22;;;9.37;100.00
50093;BME280;35974;47.752;10.290;2023-05-19T06:38:54;94107.81;;;9.28;100.00
50093;BME280;35974;47.752;10.290;2023-05-19T06:41:21;94099.50;;;9.46;100.00
50093;BME280;35974;47.752;10.290;2023-05-19T06:43:47;94103.81;;;9.32;100.00
50093;BME280;35974;47.752;10.290;2023-05-19T06:46:14;94108.94;;;9.19;100.00
50093;BME280;35974;47.752;10.290;2023-05-19T06:48:42;94110.94;;;9.16;100.00
50093;BME280;35974;47.752;10.290;2023-05-19T06:51:09;94107.69;;;9.14;100.00
50093;BME280;35974;47.752;10.290;2023-05-19T06:53:35;94113.88;;;9.35;100.00
50093;BME280;35974;47.752;10.290;2023-05-19T06:56:02;94114.34;;;9.45;100.00
50093;BME280;35974;47.752;10.290;2023-05-19T06:58:28;94105.88;;;9.37;100.00
50093;BME280;35974;47.752;10.290;2023-05-19T07:00:55;94106.78;;;9.50;100.00
50093;BME280;35974;47.752;10.290;2023-05-19T07:03:21;94098.44;;;9.68;100.00
50093;BME280;35974;47.752;10.290;2023-05-19T07:05:48;94106.78;;;9.50;100.00
50093;BME280;35974;47.752;10.290;2023-05-19T07:08:14;94104.78;;;9.52;100.00
50093;BME280;35974;47.752;10.290;2023-05-19T07:10:45;94101.13;;;9.53;100.00
50093;BME280;35974;47.752;10.290;2023-05-19T07:13:11;94107.16;;;9.82;100.00
50093;BME280;35974;47.752;10.290;2023-05-19T07:15:37;94109.22;;;9.94;100.00
50093;BME280;35974;47.752;10.290;2023-05-19T07:18:04;94106.97;;;9.90;100.00
50093;BME280;35974;47.752;10.290;2023-05-19T07:20:30;94109.97;;;9.87;100.00
50093;BME280;35974;47.752;10.290;2023-05-19T07:22:57;94112.97;;;9.84;100.00
50093;BME280;35974;47.752;10.290;2023-05-19T07:25:23;94108.16;;;9.81;100.00
50093;BME280;35974;47.752;10.290;2023-05-19T07:27:51;94105.56;;;9.81;100.00
50093;BME280;35974;47.752;10.290;2023-05-19T07:30:17;94098.16;;;9.92;100.00
50093;BME280;35974;47.752;10.290;2023-05-19T07:32:44;94099.53;;;9.87;100.00
50093;BME280;35974;47.752;10.290;2023-05-19T07:35:10;94098.97;;;9.99;100.00
50093;BME280;35974;47.752;10.290;2023-05-19T07:37:37;94096.38;;;10.05;100.00
50093;BME280;35974;47.752;10.290;2023-05-19T07:40:03;94095.81;;;10.10;100.00
50093;BME280;35974;47.752;10.290;2023-05-19T07:42:30;94099.88;;;10.19;100.00
50093;BME280;35974;47.752;10.290;2023-05-19T07:44:56;94096.34;;;10.34;100.00
50093;BME280;35974;47.752;10.290;2023-05-19T07:47:23;94097.94;;;10.35;100.00
50093;BME280;35974;47.752;10.290;2023-05-19T07:49:49;94097.63;;;10.58;100.00
50093;BME280;35974;47.752;10.290;2023-05-19T07:52:17;94095.19;;;10.56;100.00
50093;BME280;35974;47.752;10.290;2023-05-19T07:54:45;94087.94;;;10.58;100.00
50093;BME280;35974;47.752;10.290;2023-05-19T07:57:12;94095.06;;;10.30;100.00
50093;BME280;35974;47.752;10.290;2023-05-19T07:59:39;94105.94;;;10.26;100.00
50093;BME280;35974;47.752;10.290;2023-05-19T08:02:06;94101.78;;;10.39;100.00
50093;BME280;35974;47.752;10.290;2023-05-19T08:04:32;94097.09;;;10.27;100.00
50093;BME280;35974;47.752;10.290;2023-05-19T08:06:59;94100.75;;;10.33;100.00
50093;BME280;35974;47.752;10.290;2023-05-19T08:09:25;94105.19;;;10.33;100.00
50093;BME280;35974;47.752;10.290;2023-05-19T08:11:52;94098.31;;;10.32;100.00
50093;BME280;35974;47.752;10.290;2023-05-19T08:14:18;94100.34;;;10.36;100.00
50093;BME280;35974;47.752;10.290;2023-05-19T08:16:47;94101.56;;;10.34;100.00
50093;BME280;35974;47.752;10.290;2023-05-19T08:19:14;94099.19;;;10.46;100.00
50093;BME280;35974;47.752;10.290;2023-05-19T08:21:40;94089.84;;;10.30;100.00
50093;BME280;35974;47.752;10.290;2023-05-19T08:24:07;94100.78;;;10.40;100.00
50093;BME280;35974;47.752;10.290;2023-05-19T08:26:34;94095.00;;;10.51;100.00
50093;BME280;35974;47.752;10.290;2023-05-19T08:29:02;94090.97;;;10.55;100.00
50093;BME280;35974;47.752;10.290;2023-05-19T08:31:29;94087.97;;;10.72;100.00
50093;BME280;35974;47.752;10.290;2023-05-19T08:33:55;94094.84;;;10.99;100.00
50093;BME280;35974;47.752;10.290;2023-05-19T08:39:01;94092.81;;;10.95;100.00
50093;BME280;35974;47.752;10.290;2023-05-19T08:41:28;94093.25;;;11.25;100.00
50093;BME280;35974;47.752;10.290;2023-05-19T08:43:54;94088.00;;;11.32;100.00
50093;BME280;35974;47.752;10.290;2023-05-19T08:46:21;94086.81;;;11.21;100.00
50093;BME280;35974;47.752;10.290;2023-05-19T08:48:51;94083.16;;;11.22;100.00
50093;BME280;35974;47.752;10.290;2023-05-19T08:54:03;94080.75;;;11.41;100.00
50093;BME280;35974;47.752;10.290;2023-05-19T08:56:33;94081.56;;;11.34;100.00
50093;BME280;35974;47.752;10.290;2023-05-19T08:58:59;94081.16;;;11.38;100.00
50093;BME280;35974;47.752;10.290;2023-05-19T09:01:27;94078.28;;;11.66;100.00
50093;BME280;35974;47.752;10.290;2023-05-19T09:03:55;94075.84;;;11.64;100.00
50093;BME280;35974;47.752;10.290;2023-05-19T09:06:22;94074.25;;;11.63;100.00
50093;BME280;35974;47.752;10.290;2023-05-19T09:08:49;94078.66;;;11.69;100.00
50093;BME280;35974;47.752;10.290;2023-05-19T09:11:15;94075.78;;;12.04;100.00
50093;BME280;35974;47.752;10.290;2023-05-19T09:13:41;94073.38;;;11.96;100.00
50093;BME280;35974;47.752;10.290;2023-05-19T09:16:08;94067.25;;;12.16;100.00
50093;BME280;35974;47.752;10.290;2023-05-19T09:18:37;94073.19;;;11.91;100.00
50093;BME280;35974;47.752;10.290;2023-05-19T09:21:04;94071.53;;;12.03;100.00
50093;BME280;35974;47.752;10.290;2023-05-19T09:23:31;94059.25;;;11.97;100.00
50093;BME280;35974;47.752;10.290;2023-05-19T09:26:03;94068.16;;;11.96;100.00
50093;BME280;35974;47.752;10.290;2023-05-19T09:28:30;94070.28;;;12.13;100.00
50093;BME280;35974;47.752;10.290;2023-05-19T09:31:16;94056.28;;;12.32;100.00
50093;BME280;35974;47.752;10.290;2023-05-19T09:33:43;94063.56;;;12.30;100.00
50093;BME280;35974;47.752;10.290;2023-05-19T09:36:11;94057.81;;;12.47;100.00
50093;BME280;35974;47.752;10.290;2023-05-19T09:38:38;94057.81;;;12.47;100.00
50093;BME280;35974;47.752;10.290;2023-05-19T09:41:05;94054.16;;;12.48;100.00
50093;BME280;35974;47.752;10.290;2023-05-19T09:43:32;94057.75;;;12.60;100.00
50093;BME280;35974;47.752;10.290;2023-05-19T09:48:27;94047.66;;;12.57;100.00
50093;BME280;35974;47.752;10.290;2023-05-19T09:50:53;94055.78;;;12.49;100.00
50093;BME280;35974;47.752;10.290;2023-05-19T09:53:20;94052.50;;;12.60;100.00
50093;BME280;35974;47.752;10.290;2023-05-19T09:55:47;94057.91;;;12.33;100.00
50093;BME280;35974;47.752;10.290;2023-05-19T09:58:15;94054.06;;;12.29;100.00
50093;BME280;35974;47.752;10.290;2023-05-19T10:00:41;94050.19;;;12.38;100.00
50093;BME280;35974;47.752;10.290;2023-05-19T10:03:10;94046.53;;;12.39;100.00
50093;BME280;35974;47.752;10.290;2023-05-19T10:05:37;94056.22;;;12.45;100.00
50093;BME280;35974;47.752;10.290;2023-05-19T10:08:04;94054.16;;;12.48;100.00
50093;BME280;35974;47.752;10.290;2023-05-19T10:10:32;94055.00;;;12.48;100.00
50093;BME280;35974;47.752;10.290;2023-05-19T10:12:59;94048.19;;;12.72;100.00
50093;BME280;35974;47.752;10.290;2023-05-19T10:15:26;94052.41;;;12.73;100.00
50093;BME280;35974;47.752;10.290;2023-05-19T10:17:53;94056.78;;;12.48;100.00
50093;BME280;35974;47.752;10.290;2023-05-19T10:20:35;94061.78;;;12.56;100.00
50093;BME280;35974;47.752;10.290;2023-05-19T10:23:02;94057.25;;;12.44;100.00
50093;BME280;35974;47.752;10.290;2023-05-19T10:25:30;94053.25;;;12.67;100.00
50093;BME280;35974;47.752;10.290;2023-05-19T10:28:02;94051.22;;;12.69;100.00
50093;BME280;35974;47.752;10.290;2023-05-19T10:30:30;94044.34;;;12.68;100.00
50093;BME280;35974;47.752;10.290;2023-05-19T10:32:59;94041.72;;;12.68;100.00
50093;BME280;35974;47.752;10.290;2023-05-19T10:40:56;94041.91;;;12.73;100.00
50093;BME280;35974;47.752;10.290;2023-05-19T10:43:48;94042.72;;;12.74;100.00
50093;BME280;35974;47.752;10.290;2023-05-19T10:46:12;94041.38;;;12.90;100.00
50093;BME280;35974;47.752;10.290;2023-05-19T10:48:47;94046.53;;;13.03;100.00
50093;BME280;35974;47.752;10.290;2023-05-19T10:51:13;94046.00;;;13.19;100.00
50093;BME280;35974;47.752;10.290;2023-05-19T10:53:40;94049.75;;;13.05;100.00
50093;BME280;35974;47.752;10.290;2023-05-19T10:56:11;94044.50;;;13.05;100.00
50093;BME280;35974;47.752;10.290;2023-05-19T10:58:53;94053.06;;;12.94;100.00
50093;BME280;35974;47.752;10.290;2023-05-19T11:01:20;94041.19;;;13.16;100.00
50093;BME280;35974;47.752;10.290;2023-05-19T11:03:50;94049.09;;;12.85;100.00
50093;BME280;35974;47.752;10.290;2023-05-19T11:06:29;94045.13;;;12.75;100.00
50093;BME280;35974;47.752;10.290;2023-05-19T11:08:57;94034.91;;;12.92;100.00
50093;BME280;35974;47.752;10.290;2023-05-19T11:11:26;94037.50;;;13.17;100.00
50093;BME280;35974;47.752;10.290;2023-05-19T11:14:09;94039.78;;;13.39;100.00
50093;BME280;35974;47.752;10.290;2023-05-19T11:16:37;94036.44;;;13.50;100.00
50093;BME280;35974;47.752;10.290;2023-05-19T11:19:05;94040.22;;;13.36;100.00
50093;BME280;35974;47.752;10.290;2023-05-19T11:21:47;94041.44;;;13.59;100.00
50093;BME280;35974;47.752;10.290;2023-05-19T11:24:33;94037.94;;;13.65;100.00
50093;BME280;35974;47.752;10.290;2023-05-19T11:29:53;94045.63;;;13.60;100.00
50093;BME280;35974;47.752;10.290;2023-05-19T11:32:21;94045.34;;;13.49;100.00
50093;BME280;35974;47.752;10.290;2023-05-19T11:34:51;94041.69;;;13.25;100.00
50093;BME280;35974;47.752;10.290;2023-05-19T11:37:18;94039.97;;;13.12;100.00
50093;BME280;35974;47.752;10.290;2023-05-19T11:39:44;94041.59;;;13.13;100.00
50093;BME280;35974;47.752;10.290;2023-05-19T11:42:11;94042.50;;;13.00;100.00
50093;BME280;35974;47.752;10.290;2023-05-19T11:44:37;94041.19;;;13.16;100.00
50093;BME280;35974;47.752;10.290;2023-05-19T11:47:06;94039.56;;;13.15;100.00
50093;BME280;35974;47.752;10.290;2023-05-19T11:49:33;94046.28;;;13.36;100.00
50093;BME280;35974;47.752;10.290;2023-05-19T11:51:59;94034.19;;;13.54;100.00
50093;BME280;35974;47.752;10.290;2023-05-19T11:54:30;94032.16;;;13.31;100.00
50093;BME280;35974;47.752;10.290;2023-05-19T11:57:00;94028.63;;;13.62;100.00
50093;BME280;35974;47.752;10.290;2023-05-19T11:59:30;94022.19;;;13.58;100.00
50093;BME280;35974;47.752;10.290;2023-05-19T12:02:01;94018.06;;;13.69;100.00
50093;BME280;35974;47.752;10.290;2023-05-19T12:04:31;94019.50;;;13.83;100.00
50093;BME280;35974;47.752;10.290;2023-05-19T12:06:58;94018.78;;;13.76;100.00
50093;BME280;35974;47.752;10.290;2023-05-19T12:09:24;94022.16;;;13.65;100.00
50093;BME280;35974;47.752;10.290;2023-05-19T12:11:53;94017.25;;;13.25;100.00
50093;BME280;35974;47.752;10.290;2023-05-19T12:14:19;94021.25;;;13.34;100.00
50093;BME280;35974;47.752;10.290;2023-05-19T12:16:46;94020.78;;;13.37;100.00
50093;BME280;35974;47.752;10.290;2023-05-19T12:19:13;94016.56;;;13.54;100.00
50093;BME280;35974;47.752;10.290;2023-05-19T12:21:39;94020.53;;;13.64;100.00
50093;BME280;35974;47.752;10.290;2023-05-19T12:24:06;94020.53;;;13.64;100.00
50093;BME280;35974;47.752;10.290;2023-05-19T12:26:34;94022.94;;;13.22;100.00
50093;BME280;35974;47.752;10.290;2023-05-19T12:29:01;94023.78;;;13.15;100.00
50093;BME280;35974;47.752;10.290;2023-05-19T12:31:27;94022.84;;;13.35;100.00
50093;BME280;35974;47.752;10.290;2023-05-19T12:33:54;94024.31;;;13.49;100.00
50093;BME280;35974;47.752;10.290;2023-05-19T12:36:22;94026.50;;;13.52;100.00
50093;BME280;35974;47.752;10.290;2023-05-19T12:38:54;94017.91;;;13.45;100.00
50093;BME280;35974;47.752;10.290;2023-05-19T12:41:27;94016.56;;;13.36;100.00
50093;BME280;35974;47.752;10.290;2023-05-19T12:43:54;94007.47;;;13.32;100.00
50093;BME280;35974;47.752;10.290;2023-05-19T12:46:20;94012.19;;;13.48;100.00
50093;BME280;35974;47.752;10.290;2023-05-19T12:48:48;94004.88;;;13.87;100.00
50093;BME280;35974;47.752;10.290;2023-05-19T12:51:20;94006.06;;;13.91;100.00
50093;BME280;35974;47.752;10.290;2023-05-19T12:53:48;94007.38;;;13.64;100.00
50093;BME280;35974;47.752;10.290;2023-05-19T12:56:14;94010.72;;;13.34;100.00
50093;BME280;35974;47.752;10.290;2023-05-19T12:58:42;94008.88;;;13.09;100.00
50093;BME280;35974;47.752;10.290;2023-05-19T13:01:17;94004.19;;;12.93;100.00
50093;BME280;35974;47.752;10.290;2023-05-19T13:03:44;94007.88;;;13.10;100.00
50093;BME280;35974;47.752;10.290;2023-05-19T13:06:11;94006.88;;;13.11;100.00
50093;BME280;35974;47.752;10.290;2023-05-19T13:08:37;94002.47;;;13.05;100.00
50093;BME280;35974;47.752;10.290;2023-05-19T13:11:05;94000.84;;;13.04;100.00
50093;BME280;35974;47.752;10.290;2023-05-19T13:13:33;93996.03;;;13.01;100.00
50093;BME280;35974;47.752;10.290;2023-05-19T13:15:59;93991.53;;;13.08;100.00
50093;BME280;35974;47.752;10.290;2023-05-19T13:18:25;94001.75;;;12.91;100.00
50093;BME280;35974;47.752;10.290;2023-05-19T13:20:53;94000.22;;;12.84;100.00
50093;BME280;35974;47.752;10.290;2023-05-19T13:23:20;93994.63;;;12.73;100.00
50093;BME280;35974;47.752;10.290;2023-05-19T13:25:46;93987.31;;;12.82;100.00
50093;BME280;35974;47.752;10.290;2023-05-19T13:28:23;93986.28;;;12.83;100.00
50093;BME280;35974;47.752;10.290;2023-05-19T13:30:50;93986.44;;;12.63;100.00
50093;BME280;35974;47.752;10.290;2023-05-19T13:33:17;93986.72;;;12.55;100.00
50093;BME280;35974;47.752;10.290;2023-05-19T13:35:43;93993.22;;;12.45;100.00